TimeCDT,TemperatureF,Dew PointF,Humidity,Sea Level PressureIn,VisibilityMPH,Wind Direction,Wind SpeedMPH,Gust SpeedMPH,PrecipitationIn,Events,Conditions,WindDirDegrees,DateUTC
12:51 AM,69.1,48.0,47,29.88,10.0,SSW,6.9,-,N/A,,Clear,200,2013-05-08 05:51:00
1:51 AM,72.0,57.9,61,29.86,10.0,South,5.8,-,N/A,,Clear,180,2013-05-08 06:51:00
2:51 AM,71.1,59.0,66,29.85,10.0,South,6.9,-,N/A,,Clear,180,2013-05-08 07:51:00
3:51 AM,66.0,55.9,70,29.86,10.0,ESE,3.5,-,N/A,,Clear,120,2013-05-08 08:51:00
4:51 AM,64.0,55.0,73,29.86,10.0,East,4.6,-,N/A,,Clear,90,2013-05-08 09:51:00
5:51 AM,61.0,51.1,70,29.86,10.0,ESE,6.9,-,N/A,,Clear,110,2013-05-08 10:51:00
6:51 AM,60.1,53.1,78,29.88,10.0,East,4.6,-,N/A,,Scattered Clouds,100,2013-05-08 11:51:00
7:01 AM,62.6,53.6,72,29.94,10.0,ESE,5.8,-,N/A,,Mostly Cloudy,120,2013-05-08 12:01:00
7:51 AM,66.0,57.9,75,29.88,10.0,SSE,4.6,-,N/A,,Overcast,160,2013-05-08 12:51:00
8:51 AM,70.0,62.1,76,29.89,10.0,South,12.7,19.6,N/A,,Overcast,180,2013-05-08 13:51:00
9:51 AM,70.0,62.1,76,29.91,10.0,South,13.8,20.7,N/A,,Overcast,190,2013-05-08 14:51:00
10:51 AM,71.1,62.1,73,29.93,10.0,South,13.8,21.9,N/A,,Overcast,190,2013-05-08 15:51:00
11:51 AM,72.0,62.1,71,29.93,10.0,South,11.5,-,N/A,,Overcast,190,2013-05-08 16:51:00
12:51 PM,73.0,62.1,68,29.93,10.0,South,13.8,20.7,N/A,,Overcast,190,2013-05-08 17:51:00
1:51 PM,73.9,62.1,66,29.90,10.0,South,12.7,-,N/A,,Overcast,190,2013-05-08 18:51:00
2:00 PM,75.2,62.6,65,29.95,10.0,South,12.7,-,N/A,,Overcast,190,2013-05-08 19:00:00
2:08 PM,75.2,62.6,65,29.94,10.0,South,12.7,19.6,N/A,,Overcast,180,2013-05-08 19:08:00
2:51 PM,78.1,62.1,58,29.87,10.0,South,13.8,23.0,N/A,,Mostly Cloudy,180,2013-05-08 19:51:00
3:51 PM,82.0,61.0,49,29.84,10.0,SSE,15.0,-,N/A,,Partly Cloudy,160,2013-05-08 20:51:00
4:51 PM,82.9,60.1,46,29.82,10.0,SSE,16.1,23.0,N/A,,Clear,160,2013-05-08 21:51:00
5:51 PM,84.0,60.1,44,29.78,10.0,SE,16.1,24.2,N/A,,Clear,140,2013-05-08 22:51:00
6:51 PM,82.0,60.1,47,29.78,10.0,SSE,17.3,24.2,N/A,,Clear,150,2013-05-08 23:51:00
7:51 PM,79.0,61.0,54,29.79,10.0,SSE,15.0,24.2,N/A,,Clear,160,2013-05-09 00:51:00
8:51 PM,75.9,61.0,60,29.81,10.0,SSE,13.8,21.9,N/A,,Clear,160,2013-05-09 01:51:00
9:51 PM,73.9,61.0,64,29.83,10.0,SSE,9.2,-,N/A,,Clear,150,2013-05-09 02:51:00
10:51 PM,73.9,61.0,64,29.85,10.0,SSE,5.8,-,N/A,,Clear,150,2013-05-09 03:51:00
11:51 PM,73.9,62.1,66,29.85,10.0,SSE,6.9,-,N/A,,Clear,160,2013-05-09 04:51:00